sensor_id;sensor_type;location;lat;lon;timestamp;pressure;altitude;pressure_sealevel;temperature;humidity
66547;BME280;53400;50.364;14.874;2023-05-07T00:02:22;98894.63;;;9.68;90.84
66547;BME280;53400;50.364;14.874;2023-05-07T00:04:48;98886.50;;;9.62;91.77
66547;BME280;53400;50.364;14.874;2023-05-07T00:07:15;98882.91;;;9.69;90.65
66547;BME280;53400;50.364;14.874;2023-05-07T00:09:41;98881.16;;;9.51;91.78
66547;BME280;53400;50.364;14.874;2023-05-07T00:12:07;98871.13;;;9.46;92.45
66547;BME280;53400;50.364;14.874;2023-05-07T00:14:33;98869.97;;;9.42;92.65
66547;BME280;53400;50.364;14.874;2023-05-07T00:16:59;98874.53;;;9.53;91.59
66547;BME280;53400;50.364;14.874;2023-05-07T00:19:25;98876.16;;;9.66;91.90
66547;BME280;53400;50.364;14.874;2023-05-07T00:21:51;98881.97;;;9.75;89.89
66547;BME280;53400;50.364;14.874;2023-05-07T00:24:21;98885.31;;;9.58;90.64
66547;BME280;53400;50.364;14.874;2023-05-07T00:26:47;98880.22;;;9.69;90.40
66547;BME280;53400;50.364;14.874;2023-05-07T00:29:13;98888.34;;;9.74;89.90
66547;BME280;53400;50.364;14.874;2023-05-07T00:31:39;98884.31;;;9.83;89.03
66547;BME280;53400;50.364;14.874;2023-05-07T00:34:05;98886.38;;;9.57;90.02
66547;BME280;53400;50.364;14.874;2023-05-07T00:36:31;98883.47;;;9.35;91.55
66547;BME280;53400;50.364;14.874;2023-05-07T00:39:00;98892.31;;;9.59;91.02
66547;BME280;53400;50.364;14.874;2023-05-07T00:41:28;98899.16;;;9.55;91.40
66547;BME280;53400;50.364;14.874;2023-05-07T00:43:56;98892.97;;;9.43;91.41
66547;BME280;53400;50.364;14.874;2023-05-07T00:46:22;98891.84;;;9.51;90.95
66547;BME280;53400;50.364;14.874;2023-05-07T00:48:49;98892.41;;;9.41;90.52
66547;BME280;53400;50.364;14.874;2023-05-07T00:51:16;98896.56;;;9.25;92.03
66547;BME280;53400;50.364;14.874;2023-05-07T00:53:42;98901.47;;;9.28;91.52
66547;BME280;53400;50.364;14.874;2023-05-07T00:56:09;98897.31;;;9.44;90.57
66547;BME280;53400;50.364;14.874;2023-05-07T00:58:37;98899.72;;;9.34;90.83
66547;BME280;53400;50.364;14.874;2023-05-07T01:01:03;98893.44;;;9.40;90.15
66547;BME280;53400;50.364;14.874;2023-05-07T01:03:29;98898.69;;;9.35;90.15
66547;BME280;53400;50.364;14.874;2023-05-07T01:05:56;98897.00;;;9.10;92.23
66547;BME280;53400;50.364;14.874;2023-05-07T01:08:23;98904.19;;;8.98;92.66
66547;BME280;53400;50.364;14.874;2023-05-07T01:10:52;98907.56;;;9.05;92.80
66547;BME280;53400;50.364;14.874;2023-05-07T01:13:19;98904.88;;;9.05;93.29
66547;BME280;53400;50.364;14.874;2023-05-07T01:15:47;98900.84;;;9.14;91.30
66547;BME280;53400;50.364;14.874;2023-05-07T01:18:13;98906.59;;;9.00;92.13
66547;BME280;53400;50.364;14.874;2023-05-07T01:20:39;98902.38;;;8.80;92.65
66547;BME280;53400;50.364;14.874;2023-05-07T01:23:07;98896.31;;;8.85;93.35
66547;BME280;53400;50.364;14.874;2023-05-07T01:25:34;98897.59;;;8.82;93.23
66547;BME280;53400;50.364;14.874;2023-05-07T01:28:00;98904.22;;;8.80;93.65
66547;BME280;53400;50.364;14.874;2023-05-07T01:30:27;98899.34;;;8.77;93.15
66547;BME280;53400;50.364;14.874;2023-05-07T01:32:59;98898.75;;;8.75;92.82
66547;BME280;53400;50.364;14.874;2023-05-07T01:35:29;98908.75;;;8.61;94.61
66547;BME280;53400;50.364;14.874;2023-05-07T01:37:56;98906.91;;;8.80;92.89
66547;BME280;53400;50.364;14.874;2023-05-07T01:40:24;98914.91;;;8.80;93.37
66547;BME280;53400;50.364;14.874;2023-05-07T01:42:52;98916.28;;;8.82;92.45
66547;BME280;53400;50.364;14.874;2023-05-07T01:45:18;98913.50;;;8.77;92.46
66547;BME280;53400;50.364;14.874;2023-05-07T01:47:44;98917.88;;;8.71;93.26
66547;BME280;53400;50.364;14.874;2023-05-07T01:50:11;98923.41;;;8.58;94.92
66547;BME280;53400;50.364;14.874;2023-05-07T01:52:38;98906.47;;;8.27;97.27
66547;BME280;53400;50.364;14.874;2023-05-07T01:55:05;98911.50;;;8.72;93.68
66547;BME280;53400;50.364;14.874;2023-05-07T01:57:33;98903.06;;;8.87;91.48
66547;BME280;53400;50.364;14.874;2023-05-07T01:59:58;98905.16;;;8.85;91.75
66547;BME280;53400;50.364;14.874;2023-05-07T02:02:24;98915.75;;;8.62;92.85
66547;BME280;53400;50.364;14.874;2023-05-07T02:04:50;98912.28;;;8.73;91.64
66547;BME280;53400;50.364;14.874;2023-05-07T02:07:16;98910.81;;;8.77;90.68
66547;BME280;53400;50.364;14.874;2023-05-07T02:09:42;98914.91;;;8.80;92.14
66547;BME280;53400;50.364;14.874;2023-05-07T02:12:08;98915.25;;;8.53;92.85
66547;BME280;53400;50.364;14.874;2023-05-07T02:14:35;98918.50;;;8.55;93.07
66547;BME280;53400;50.364;14.874;2023-05-07T02:17:01;98914.78;;;8.38;94.77
66547;BME280;53400;50.364;14.874;2023-05-07T02:19:27;98917.44;;;8.38;94.37
66547;BME280;53400;50.364;14.874;2023-05-07T02:21:53;98918.97;;;8.52;93.46
66547;BME280;53400;50.364;14.874;2023-05-07T02:24:19;98923.69;;;8.50;93.88
66547;BME280;53400;50.364;14.874;2023-05-07T02:26:46;98918.53;;;8.67;93.00
66547;BME280;53400;50.364;14.874;2023-05-07T02:29:11;98915.00;;;8.55;93.63
66547;BME280;53400;50.364;14.874;2023-05-07T02:31:39;98911.81;;;8.46;93.93
66547;BME280;53400;50.364;14.874;2023-05-07T02:34:05;98913.31;;;8.42;94.19
66547;BME280;53400;50.364;14.874;2023-05-07T02:36:31;98910.47;;;8.37;94.30
66547;BME280;53400;50.364;14.874;2023-05-07T02:38:56;98915.34;;;8.21;95.29
66547;BME280;53400;50.364;14.874;2023-05-07T02:41:22;98914.41;;;8.34;95.77
66547;BME280;53400;50.364;14.874;2023-05-07T02:43:48;98917.00;;;8.22;95.68
66547;BME280;53400;50.364;14.874;2023-05-07T02:46:14;98912.19;;;8.13;98.01
66547;BME280;53400;50.364;14.874;2023-05-07T02:48:42;98920.31;;;8.18;96.69
66547;BME280;53400;50.364;14.874;2023-05-07T02:51:08;98924.03;;;8.35;96.03
66547;BME280;53400;50.364;14.874;2023-05-07T02:53:34;98918.91;;;8.15;97.92
66547;BME280;53400;50.364;14.874;2023-05-07T02:56:01;98924.81;;;8.42;97.42
66547;BME280;53400;50.364;14.874;2023-05-07T02:58:28;98928.44;;;8.48;96.55
66547;BME280;53400;50.364;14.874;2023-05-07T03:00:54;98928.28;;;8.43;96.87
66547;BME280;53400;50.364;14.874;2023-05-07T03:03:22;98921.47;;;8.47;97.83
66547;BME280;53400;50.364;14.874;2023-05-07T03:05:51;98926.38;;;8.50;97.73
66547;BME280;53400;50.364;14.874;2023-05-07T03:08:17;98920.72;;;8.40;98.04
66547;BME280;53400;50.364;14.874;2023-05-07T03:10:43;98924.94;;;8.29;99.00
66547;BME280;53400;50.364;14.874;2023-05-07T03:13:08;98926.34;;;8.32;97.89
66547;BME280;53400;50.364;14.874;2023-05-07T03:15:34;98932.44;;;8.57;97.83
66547;BME280;53400;50.364;14.874;2023-05-07T03:18:00;98927.50;;;8.72;95.91
66547;BME280;53400;50.364;14.874;2023-05-07T03:20:26;98921.88;;;8.81;95.41
66547;BME280;53400;50.364;14.874;2023-05-07T03:22:53;98932.63;;;8.74;96.08
66547;BME280;53400;50.364;14.874;2023-05-07T03:25:20;98931.88;;;8.67;97.76
66547;BME280;53400;50.364;14.874;2023-05-07T03:27:46;98937.22;;;8.67;97.40
66547;BME280;53400;50.364;14.874;2023-05-07T03:30:12;98942.56;;;8.67;99.01
66547;BME280;53400;50.364;14.874;2023-05-07T03:32:38;98947.53;;;8.82;96.81
66547;BME280;53400;50.364;14.874;2023-05-07T03:35:05;98946.50;;;8.83;97.73
66547;BME280;53400;50.364;14.874;2023-05-07T03:37:30;98940.75;;;8.67;99.03
66547;BME280;53400;50.364;14.874;2023-05-07T03:39:58;98922.63;;;8.69;98.27
66547;BME280;53400;50.364;14.874;2023-05-07T03:42:24;98919.34;;;8.31;100.00
66547;BME280;53400;50.364;14.874;2023-05-07T03:44:50;98926.16;;;8.82;99.02
66547;BME280;53400;50.364;14.874;2023-05-07T03:47:16;98948.78;;;8.79;98.29
66547;BME280;53400;50.364;14.874;2023-05-07T03:49:42;98947.25;;;8.71;99.11
66547;BME280;53400;50.364;14.874;2023-05-07T03:52:08;98952.50;;;8.23;100.00
66547;BME280;53400;50.364;14.874;2023-05-07T03:54:34;98946.97;;;8.43;100.00
66547;BME280;53400;50.364;14.874;2023-05-07T03:57:01;98944.91;;;8.45;100.00
66547;BME280;53400;50.364;14.874;2023-05-07T03:59:27;98949.84;;;8.60;100.00
66547;BME280;53400;50.364;14.874;2023-05-07T04:01:53;98953.13;;;8.62;100.00
66547;BME280;53400;50.364;14.874;2023-05-07T04:04:19;98955.28;;;8.53;100.00
66547;BME280;53400;50.364;14.874;2023-05-07T04:06:45;98951.84;;;8.46;100.00
66547;BME280;53400;50.364;14.874;2023-05-07T04:09:11;98946.22;;;8.54;100.00
66547;BME280;53400;50.364;14.874;2023-05-07T04:11:37;98940.53;;;8.50;100.00
66547;BME280;53400;50.364;14.874;2023-05-07T04:14:07;98942.63;;;8.23;100.00
66547;BME280;53400;50.364;14.874;2023-05-07T04:16:34;98943.00;;;8.27;100.00
66547;BME280;53400;50.364;14.874;2023-05-07T04:19:00;98943.63;;;8.47;100.00
66547;BME280;53400;50.364;14.874;2023-05-07T04:21:26;98949.41;;;8.44;100.00
66547;BME280;53400;50.364;14.874;2023-05-07T04:23:52;98948.97;;;8.47;100.00
66547;BME280;53400;50.364;14.874;2023-05-07T04:26:18;98955.53;;;8.26;100.00
66547;BME280;53400;50.364;14.874;2023-05-07T04:28:44;98954.97;;;8.43;100.00
66547;BME280;53400;50.364;14.874;2023-05-07T04:31:11;98962.47;;;8.53;100.00
66547;BME280;53400;50.364;14.874;2023-05-07T04:33:37;98957.63;;;8.43;100.00
66547;BME280;53400;50.364;14.874;2023-05-07T04:36:04;98961.97;;;8.44;100.00
66547;BME280;53400;50.364;14.874;2023-05-07T04:38:30;98960.97;;;8.57;100.00
66547;BME280;53400;50.364;14.874;2023-05-07T04:40:57;98954.84;;;8.56;100.00
66547;BME280;53400;50.364;14.874;2023-05-07T04:43:23;98961.34;;;8.42;100.00
66547;BME280;53400;50.364;14.874;2023-05-07T04:45:50;98968.09;;;8.63;100.00
66547;BME280;53400;50.364;14.874;2023-05-07T04:48:17;98964.91;;;8.72;100.00
66547;BME280;53400;50.364;14.874;2023-05-07T04:50:47;98973.22;;;8.64;100.00
66547;BME280;53400;50.364;14.874;2023-05-07T04:53:13;98976.41;;;8.55;100.00
66547;BME280;53400;50.364;14.874;2023-05-07T04:55:39;98967.66;;;8.66;100.00
66547;BME280;53400;50.364;14.874;2023-05-07T04:58:05;98967.72;;;8.78;100.00
66547;BME280;53400;50.364;14.874;2023-05-07T05:00:31;98975.50;;;8.79;100.00
66547;BME280;53400;50.364;14.874;2023-05-07T05:02:57;98980.72;;;8.74;100.00
66547;BME280;53400;50.364;14.874;2023-05-07T05:05:24;98977.81;;;8.76;100.00
66547;BME280;53400;50.364;14.874;2023-05-07T05:07:50;98977.81;;;8.76;100.00
66547;BME280;53400;50.364;14.874;2023-05-07T05:10:17;98979.41;;;8.95;100.00
66547;BME280;53400;50.364;14.874;2023-05-07T05:12:43;98986.28;;;9.03;98.45
66547;BME280;53400;50.364;14.874;2023-05-07T05:15:11;98986.38;;;8.96;100.00
66547;BME280;53400;50.364;14.874;2023-05-07T05:17:37;98991.03;;;9.31;98.44
66547;BME280;53400;50.364;14.874;2023-05-07T05:20:04;98985.69;;;9.31;98.60
66547;BME280;53400;50.364;14.874;2023-05-07T05:22:33;98992.91;;;9.30;97.66
66547;BME280;53400;50.364;14.874;2023-05-07T05:24:58;98998.81;;;9.21;96.49
66547;BME280;53400;50.364;14.874;2023-05-07T05:27:24;98995.69;;;9.24;97.04
66547;BME280;53400;50.364;14.874;2023-05-07T05:29:50;98992.97;;;9.54;95.79
66547;BME280;53400;50.364;14.874;2023-05-07T05:32:16;98997.28;;;9.55;95.05
66547;BME280;53400;50.364;14.874;2023-05-07T05:34:43;99001.13;;;9.59;94.67
66547;BME280;53400;50.364;14.874;2023-05-07T05:37:09;99002.72;;;9.48;95.04
66547;BME280;53400;50.364;14.874;2023-05-07T05:39:36;99007.06;;;9.19;96.85
66547;BME280;53400;50.364;14.874;2023-05-07T05:42:02;99004.59;;;9.48;96.13
66547;BME280;53400;50.364;14.874;2023-05-07T05:44:28;99001.81;;;9.54;94.74
66547;BME280;53400;50.364;14.874;2023-05-07T05:46:54;99016.16;;;9.72;94.67
66547;BME280;53400;50.364;14.874;2023-05-07T05:49:20;99011.41;;;9.85;93.29
66547;BME280;53400;50.364;14.874;2023-05-07T05:51:47;99008.81;;;9.67;93.69
66547;BME280;53400;50.364;14.874;2023-05-07T05:54:13;99010.75;;;9.48;95.04
66547;BME280;53400;50.364;14.874;2023-05-07T05:56:40;99011.75;;;9.77;93.18
66547;BME280;53400;50.364;14.874;2023-05-07T05:59:06;99016.19;;;9.83;92.06
66547;BME280;53400;50.364;14.874;2023-05-07T06:01:32;99014.22;;;9.91;91.28
66547;BME280;53400;50.364;14.874;2023-05-07T06:03:58;99010.72;;;9.90;91.63
66547;BME280;53400;50.364;14.874;2023-05-07T06:06:25;99014.50;;;9.71;92.56
66547;BME280;53400;50.364;14.874;2023-05-07T06:08:54;99021.25;;;9.73;92.68
66547;BME280;53400;50.364;14.874;2023-05-07T06:11:20;99022.22;;;9.79;92.88
66547;BME280;53400;50.364;14.874;2023-05-07T06:13:48;99024.34;;;10.00;91.07
66547;BME280;53400;50.364;14.874;2023-05-07T06:16:14;99033.16;;;10.01;91.30
66547;BME280;53400;50.364;14.874;2023-05-07T06:18:40;99030.97;;;9.98;90.95
66547;BME280;53400;50.364;14.874;2023-05-07T06:21:06;99033.19;;;9.89;91.22
66547;BME280;53400;50.364;14.874;2023-05-07T06:23:32;99032.72;;;10.16;89.87
66547;BME280;53400;50.364;14.874;2023-05-07T06:25:58;99031.03;;;10.33;89.15
66547;BME280;53400;50.364;14.874;2023-05-07T06:28:24;99038.00;;;10.46;88.52
66547;BME280;53400;50.364;14.874;2023-05-07T06:30:52;99046.97;;;10.51;87.74
66547;BME280;53400;50.364;14.874;2023-05-07T06:33:18;99049.63;;;10.63;86.87
66547;BME280;53400;50.364;14.874;2023-05-07T06:35:47;99042.06;;;10.48;88.67
66547;BME280;53400;50.364;14.874;2023-05-07T06:38:13;99046.97;;;10.63;87.25
66547;BME280;53400;50.364;14.874;2023-05-07T06:40:39;99054.03;;;10.81;86.93
66547;BME280;53400;50.364;14.874;2023-05-07T06:43:05;99049.59;;;10.87;87.04
66547;BME280;53400;50.364;14.874;2023-05-07T06:45:31;99054.66;;;10.71;86.92
66547;BME280;53400;50.364;14.874;2023-05-07T06:47:59;99062.09;;;10.69;88.03
66547;BME280;53400;50.364;14.874;2023-05-07T06:50:25;99062.34;;;10.56;89.49
66547;BME280;53400;50.364;14.874;2023-05-07T06:52:51;99063.16;;;10.56;88.59
66547;BME280;53400;50.364;14.874;2023-05-07T06:55:18;99062.34;;;10.56;88.15
66547;BME280;53400;50.364;14.874;2023-05-07T06:57:47;99068.78;;;11.07;86.90
66547;BME280;53400;50.364;14.874;2023-05-07T07:00:14;99070.78;;;10.88;85.61
66547;BME280;53400;50.364;14.874;2023-05-07T07:02:40;99069.72;;;11.01;85.61
66547;BME280;53400;50.364;14.874;2023-05-07T07:05:09;99069.59;;;11.48;83.97
66547;BME280;53400;50.364;14.874;2023-05-07T07:07:35;99065.47;;;11.74;83.78
66547;BME280;53400;50.364;14.874;2023-05-07T07:10:01;99069.88;;;12.09;81.49
66547;BME280;53400;50.364;14.874;2023-05-07T07:12:27;99081.81;;;11.15;85.13
66547;BME280;53400;50.364;14.874;2023-05-07T07:14:55;99073.66;;;11.51;83.51
66547;BME280;53400;50.364;14.874;2023-05-07T07:17:21;99072.72;;;11.74;82.15
66547;BME280;53400;50.364;14.874;2023-05-07T07:19:47;99068.50;;;11.78;82.09
66547;BME280;53400;50.364;14.874;2023-05-07T07:22:15;99071.97;;;12.07;81.26
66547;BME280;53400;50.364;14.874;2023-05-07T07:24:41;99075.00;;;10.84;85.95
66547;BME280;53400;50.364;14.874;2023-05-07T07:27:06;99075.13;;;11.30;84.62
66547;BME280;53400;50.364;14.874;2023-05-07T07:29:32;99076.34;;;10.98;85.30
66547;BME280;53400;50.364;14.874;2023-05-07T07:31:58;99078.78;;;11.12;86.33
66547;BME280;53400;50.364;14.874;2023-05-07T07:34:24;99077.28;;;10.92;86.68
66547;BME280;53400;50.364;14.874;2023-05-07T07:36:50;99084.47;;;11.27;85.29
66547;BME280;53400;50.364;14.874;2023-05-07T07:39:17;99080.91;;;10.86;86.52
66547;BME280;53400;50.364;14.874;2023-05-07T07:41:43;99087.72;;;11.29;85.20
66547;BME280;53400;50.364;14.874;2023-05-07T07:44:09;99097.75;;;11.22;85.79
66547;BME280;53400;50.364;14.874;2023-05-07T07:46:38;99096.63;;;11.75;84.26
66547;BME280;53400;50.364;14.874;2023-05-07T07:49:04;99096.41;;;12.05;82.31
66547;BME280;53400;50.364;14.874;2023-05-07T07:51:30;99095.06;;;11.91;82.37
66547;BME280;53400;50.364;14.874;2023-05-07T07:53:56;99093.59;;;11.71;84.86
66547;BME280;53400;50.364;14.874;2023-05-07T07:56:24;99091.28;;;12.21;82.74
66547;BME280;53400;50.364;14.874;2023-05-07T07:58:51;99094.09;;;11.97;82.45
66547;BME280;53400;50.364;14.874;2023-05-07T08:01:16;99099.66;;;12.24;80.33
66547;BME280;53400;50.364;14.874;2023-05-07T08:03:42;99085.66;;;12.05;82.73
66547;BME280;53400;50.364;14.874;2023-05-07T08:06:08;99086.03;;;12.14;81.84
66547;BME280;53400;50.364;14.874;2023-05-07T08:08:34;99094.22;;;10.93;86.70
66547;BME280;53400;50.364;14.874;2023-05-07T08:11:00;99092.56;;;11.44;86.70
66547;BME280;53400;50.364;14.874;2023-05-07T08:13:28;99098.91;;;12.29;81.93
66547;BME280;53400;50.364;14.874;2023-05-07T08:15:54;99109.47;;;12.35;81.28
66547;BME280;53400;50.364;14.874;2023-05-07T08:18:20;99105.03;;;12.24;80.12
66547;BME280;53400;50.364;14.874;2023-05-07T08:20:46;99109.94;;;11.99;82.13
66547;BME280;53400;50.364;14.874;2023-05-07T08:23:12;99112.41;;;12.00;82.88
66547;BME280;53400;50.364;14.874;2023-05-07T08:25:39;99115.47;;;11.92;82.64
66547;BME280;53400;50.364;14.874;2023-05-07T08:28:05;99114.66;;;11.91;82.46
66547;BME280;53400;50.364;14.874;2023-05-07T08:30:33;99109.53;;;11.21;85.57
66547;BME280;53400;50.364;14.874;2023-05-07T08:32:59;99117.59;;;11.21;86.02
66547;BME280;53400;50.364;14.874;2023-05-07T08:35:25;99111.91;;;11.46;85.47
66547;BME280;53400;50.364;14.874;2023-05-07T08:37:52;99113.31;;;12.23;82.02
66547;BME280;53400;50.364;14.874;2023-05-07T08:40:18;99116.41;;;12.31;82.51
66547;BME280;53400;50.364;14.874;2023-05-07T08:42:48;99121.34;;;12.56;80.01
66547;BME280;53400;50.364;14.874;2023-05-07T08:45:15;99133.19;;;12.55;78.45
66547;BME280;53400;50.364;14.874;2023-05-07T08:47:44;99128.28;;;12.52;78.52
66547;BME280;53400;50.364;14.874;2023-05-07T08:50:12;99132.44;;;12.43;79.23
66547;BME280;53400;50.364;14.874;2023-05-07T08:52:39;99135.16;;;12.60;78.54
66547;BME280;53400;50.364;14.874;2023-05-07T08:55:07;99130.09;;;12.47;78.49
66547;BME280;53400;50.364;14.874;2023-05-07T08:57:34;99139.75;;;12.81;77.29
66547;BME280;53400;50.364;14.874;2023-05-07T09:00:02;99129.78;;;12.60;76.27
66547;BME280;53400;50.364;14.874;2023-05-07T09:02:29;99134.63;;;12.12;79.37
66547;BME280;53400;50.364;14.874;2023-05-07T09:04:57;99132.38;;;12.55;78.82
66547;BME280;53400;50.364;14.874;2023-05-07T09:07:23;99137.06;;;12.65;77.03
66547;BME280;53400;50.364;14.874;2023-05-07T09:09:50;99138.31;;;12.57;77.55
66547;BME280;53400;50.364;14.874;2023-05-07T09:12:17;99139.50;;;12.32;79.31
66547;BME280;53400;50.364;14.874;2023-05-07T09:14:43;99145.28;;;12.92;76.78
66547;BME280;53400;50.364;14.874;2023-05-07T09:17:09;99154.09;;;12.70;77.17
66547;BME280;53400;50.364;14.874;2023-05-07T09:19:35;99156.59;;;12.94;76.46
66547;BME280;53400;50.364;14.874;2023-05-07T09:22:04;99159.81;;;13.13;76.43
66547;BME280;53400;50.364;14.874;2023-05-07T09:24:30;99162.84;;;12.99;75.95
66547;BME280;53400;50.364;14.874;2023-05-07T09:27:00;99168.13;;;13.11;75.81
66547;BME280;53400;50.364;14.874;2023-05-07T09:29:27;99161.63;;;13.07;74.96
66547;BME280;53400;50.364;14.874;2023-05-07T09:31:54;99163.41;;;13.01;74.76
66547;BME280;53400;50.364;14.874;2023-05-07T09:34:20;99156.97;;;11.73;79.14
66547;BME280;53400;50.364;14.874;2023-05-07T09:36:46;99159.81;;;11.83;80.32
66547;BME280;53400;50.364;14.874;2023-05-07T09:39:14;99155.72;;;12.37;78.87
66547;BME280;53400;50.364;14.874;2023-05-07T09:41:44;99157.13;;;12.40;79.31
66547;BME280;53400;50.364;14.874;2023-05-07T09:44:10;99153.25;;;12.19;80.60
66547;BME280;53400;50.364;14.874;2023-05-07T09:46:38;99156.69;;;11.74;82.92
66547;BME280;53400;50.364;14.874;2023-05-07T09:49:06;99162.66;;;11.36;82.37
66547;BME280;53400;50.364;14.874;2023-05-07T09:51:39;99163.13;;;11.44;82.70
66547;BME280;53400;50.364;14.874;2023-05-07T09:54:07;99158.66;;;11.90;79.56
66547;BME280;53400;50.364;14.874;2023-05-07T09:56:35;99162.28;;;12.13;77.36
66547;BME280;53400;50.364;14.874;2023-05-07T09:59:03;99164.69;;;11.98;76.33
66547;BME280;53400;50.364;14.874;2023-05-07T10:01:33;99165.78;;;12.13;76.76
66547;BME280;53400;50.364;14.874;2023-05-07T10:04:02;99163.63;;;12.27;76.11
66547;BME280;53400;50.364;14.874;2023-05-07T10:06:30;99161.53;;;12.63;73.41
66547;BME280;53400;50.364;14.874;2023-05-07T10:08:56;99167.88;;;12.57;74.20
66547;BME280;53400;50.364;14.874;2023-05-07T10:11:23;99160.84;;;12.56;73.61
66547;BME280;53400;50.364;14.874;2023-05-07T10:13:52;99164.03;;;12.53;74.04
66547;BME280;53400;50.364;14.874;2023-05-07T10:16:18;99163.53;;;12.56;74.71
66547;BME280;53400;50.364;14.874;2023-05-07T10:18:44;99167.75;;;12.85;73.52
66547;BME280;53400;50.364;14.874;2023-05-07T10:21:14;99168.13;;;13.11;71.47
66547;BME280;53400;50.364;14.874;2023-05-07T10:23:45;99168.94;;;13.28;71.36
66547;BME280;53400;50.364;14.874;2023-05-07T10:26:12;99169.66;;;12.51;71.46
66547;BME280;53400;50.364;14.874;2023-05-07T10:28:41;99180.66;;;12.04;73.55
66547;BME280;53400;50.364;14.874;2023-05-07T10:31:18;99176.19;;;12.10;73.93
66547;BME280;53400;50.364;14.874;2023-05-07T10:33:51;99167.88;;;11.83;75.92
66547;BME280;53400;50.364;14.874;2023-05-07T10:36:20;99177.16;;;12.04;76.84
66547;BME280;53400;50.364;14.874;2023-05-07T10:38:47;99173.94;;;12.35;75.30
66547;BME280;53400;50.364;14.874;2023-05-07T10:41:13;99174.69;;;12.31;74.36
66547;BME280;53400;50.364;14.874;2023-05-07T10:43:42;99177.22;;;12.21;75.55
66547;BME280;53400;50.364;14.874;2023-05-07T10:46:18;99169.97;;;12.38;72.48
66547;BME280;53400;50.364;14.874;2023-05-07T10:49:06;99169.97;;;12.72;71.72
66547;BME280;53400;50.364;14.874;2023-05-07T10:51:35;99162.25;;;13.14;71.28
66547;BME280;53400;50.364;14.874;2023-05-07T10:54:21;99177.69;;;13.63;69.51
66547;BME280;53400;50.364;14.874;2023-05-07T10:56:48;99170.13;;;13.38;69.58
66547;BME280;53400;50.364;14.874;2023-05-07T10:59:35;99167.09;;;12.95;69.38
66547;BME280;53400;50.364;14.874;2023-05-07T11:02:09;99161.44;;;13.30;69.70
66547;BME280;53400;50.364;14.874;2023-05-07T11:04:37;99173.41;;;13.89;68.42
66547;BME280;53400;50.364;14.874;2023-05-07T11:07:28;99162.13;;;13.92;67.74
66547;BME280;53400;50.364;14.874;2023-05-07T11:10:05;99167.97;;;14.38;66.01
66547;BME280;53400;50.364;14.874;2023-05-07T11:12:54;99171.91;;;14.57;64.45
66547;BME280;53400;50.364;14.874;2023-05-07T11:15:47;99169.00;;;14.32;66.07
66547;BME280;53400;50.364;14.874;2023-05-07T11:18:16;99162.66;;;13.89;66.40
66547;BME280;53400;50.364;14.874;2023-05-07T11:21:00;99166.63;;;13.20;68.81
66547;BME280;53400;50.364;14.874;2023-05-07T11:23:56;99168.81;;;13.23;69.56
66547;BME280;53400;50.364;14.874;2023-05-07T11:26:25;99168.47;;;12.98;68.41
66547;BME280;53400;50.364;14.874;2023-05-07T11:28:52;99164.44;;;13.17;69.57
66547;BME280;53400;50.364;14.874;2023-05-07T11:31:24;99170.72;;;13.89;66.12
66547;BME280;53400;50.364;14.874;2023-05-07T11:33:52;99176.38;;;13.65;65.35
66547;BME280;53400;50.364;14.874;2023-05-07T11:36:19;99171.97;;;13.15;66.04
66547;BME280;53400;50.364;14.874;2023-05-07T11:38:46;99168.03;;;13.45;66.71
66547;BME280;53400;50.364;14.874;2023-05-07T11:41:12;99176.53;;;13.81;65.27
66547;BME280;53400;50.364;14.874;2023-05-07T11:43:53;99171.00;;;13.43;66.81
66547;BME280;53400;50.364;14.874;2023-05-07T11:46:20;99163.16;;;13.42;67.32
66547;BME280;53400;50.364;14.874;2023-05-07T11:48:47;99170.63;;;14.06;65.55
66547;BME280;53400;50.364;14.874;2023-05-07T11:51:22;99174.00;;;13.91;65.14
66547;BME280;53400;50.364;14.874;2023-05-07T11:53:49;99166.41;;;13.66;65.39
66547;BME280;53400;50.364;14.874;2023-05-07T11:56:16;99167.03;;;14.22;64.94
66547;BME280;53400;50.364;14.874;2023-05-07T11:58:43;99174.03;;;13.96;64.40
66547;BME280;53400;50.364;14.874;2023-05-07T12:01:11;99173.31;;;13.79;64.26
66547;BME280;53400;50.364;14.874;2023-05-07T12:03:40;99165.84;;;13.42;64.33
66547;BME280;53400;50.364;14.874;2023-05-07T12:06:08;99181.50;;;14.48;61.83
66547;BME280;53400;50.364;14.874;2023-05-07T12:08:37;99173.19;;;14.82;61.71
66547;BME280;53400;50.364;14.874;2023-05-07T12:11:07;99173.28;;;14.60;62.83
66547;BME280;53400;50.364;14.874;2023-05-07T12:13:34;99185.19;;;14.64;61.31
66547;BME280;53400;50.364;14.874;2023-05-07T12:16:00;99180.06;;;15.52;59.23
66547;BME280;53400;50.364;14.874;2023-05-07T12:18:29;99175.78;;;15.09;58.58
66547;BME280;53400;50.364;14.874;2023-05-07T12:20:56;99166.19;;;15.33;59.21
66547;BME280;53400;50.364;14.874;2023-05-07T12:23:22;99169.19;;;16.05;58.71
66547;BME280;53400;50.364;14.874;2023-05-07T12:25:49;99176.13;;;15.70;58.80
66547;BME280;53400;50.364;14.874;2023-05-07T12:28:17;99178.75;;;15.07;58.12
66547;BME280;53400;50.364;14.874;2023-05-07T12:30:43;99173.41;;;15.12;58.97
66547;BME280;53400;50.364;14.874;2023-05-07T12:33:10;99180.22;;;15.25;60.65
66547;BME280;53400;50.364;14.874;2023-05-07T12:35:38;99171.97;;;14.62;60.86
66547;BME280;53400;50.364;14.874;2023-05-07T12:38:07;99177.66;;;14.07;61.13
66547;BME280;53400;50.364;14.874;2023-05-07T12:40:40;99186.66;;;14.50;62.71
66547;BME280;53400;50.364;14.874;2023-05-07T12:43:16;99183.41;;;14.20;65.35
66547;BME280;53400;50.364;14.874;2023-05-07T12:45:43;99185.19;;;14.64;62.80
66547;BME280;53400;50.364;14.874;2023-05-07T12:48:10;99175.91;;;14.22;63.39
66547;BME280;53400;50.364;14.874;2023-05-07T12:50:38;99172.53;;;14.69;63.22
66547;BME280;53400;50.364;14.874;2023-05-07T12:53:05;99170.34;;;14.61;61.61
66547;BME280;53400;50.364;14.874;2023-05-07T12:55:41;99177.41;;;14.73;61.11